Time;durP1;ratioP1;P1;durP2;ratioP2;P2;SDS_P1;SDS_P2;PMS_P1;PMS_P2;Temp;Humidity;BMP_temperature;BMP_pressure;BME280_temperature;BME280_humidity;BME280_pressure;Samples;Min_cycle;Max_cycle;Signal;HPM_P1;HPM_P2
2022/06/24 00:01:24;;;;;;;7.78;1.88;;;;;;;17.87;100.00;97821.69;5064654;28;20025;-67
2022/06/24 00:03:49;;;;;;;6.93;2.10;;;;;;;17.88;100.00;97817.22;5066745;28;20032;-67
2022/06/24 00:06:17;;;;;;;10.80;1.70;;;;;;;17.80;100.00;97819.50;5066643;28;20021;-67
2022/06/24 00:08:50;;;;;;;3.85;1.58;;;;;;;17.80;100.00;97819.50;5065043;28;20084;-67
2022/06/24 00:11:15;;;;;;;3.83;1.67;;;;;;;17.77;100.00;97814.34;5066606;28;20029;-67
2022/06/24 00:13:41;;;;;;;7.35;1.75;;;;;;;17.66;100.00;97799.06;5066560;28;20347;-67
2022/06/24 00:16:06;;;;;;;6.03;1.77;;;;;;;17.67;100.00;97798.09;5054771;28;20044;-67
2022/06/24 00:18:31;;;;;;;9.95;1.67;;;;;;;17.65;100.00;97801.81;5053708;28;20028;-67
2022/06/24 00:20:57;;;;;;;4.13;1.23;;;;;;;17.68;100.00;97804.28;5066234;28;20215;-67
2022/06/24 00:23:23;;;;;;;5.30;1.67;;;;;;;17.67;100.00;97805.22;5066337;28;20083;-67
2022/06/24 00:25:52;;;;;;;5.82;1.95;;;;;;;17.61;100.00;97808.25;5066376;28;20035;-67
2022/06/24 00:28:24;;;;;;;7.85;2.30;;;;;;;17.58;100.00;97813.75;5064858;28;20021;-67
2022/06/24 00:30:52;;;;;;;4.07;1.75;;;;;;;17.51;100.00;97818.59;5059406;28;20029;-67
2022/06/24 00:33:23;;;;;;;5.35;2.05;;;;;;;17.45;100.00;97820.75;5047045;28;20026;-67
2022/06/24 00:35:56;;;;;;;5.07;1.70;;;;;;;17.49;100.00;97819.66;5059947;28;20032;-67
2022/06/24 00:38:24;;;;;;;6.78;2.30;;;;;;;17.41;100.00;97821.88;5064963;28;20021;-67
2022/06/24 00:40:53;;;;;;;5.60;2.00;;;;;;;17.44;100.00;97822.59;5065804;28;20029;-67
2022/06/24 00:43:24;;;;;;;8.88;1.92;;;;;;;17.44;100.00;97835.03;5065988;28;20028;-67
2022/06/24 00:45:55;;;;;;;6.30;1.92;;;;;;;17.44;100.00;97827.03;5064404;28;20056;-67
2022/06/24 00:48:23;;;;;;;7.32;2.08;;;;;;;17.41;100.00;97833.38;5053316;28;20067;-67
2022/06/24 00:50:50;;;;;;;5.65;1.70;;;;;;;17.43;100.00;97830.66;5046141;28;20023;-67
2022/06/24 00:53:15;;;;;;;7.40;2.40;;;;;;;17.40;100.00;97821.00;5066070;28;20193;-67
2022/06/24 00:55:41;;;;;;;7.18;1.65;;;;;;;17.40;100.00;97817.50;5065779;28;20028;-67
2022/06/24 00:58:15;;;;;;;6.95;2.25;;;;;;;17.38;100.00;97822.91;5064110;28;20088;-67
2022/06/24 01:00:44;;;;;;;8.13;1.77;;;;;;;17.37;100.00;97825.66;5061402;28;20313;-67
2022/06/24 01:03:09;;;;;;;6.55;1.85;;;;;;;17.40;100.00;97830.81;5053619;28;20159;-67
2022/06/24 01:05:35;;;;;;;12.13;1.98;;;;;;;17.28;100.00;97833.22;5064019;28;20025;-67
2022/06/24 01:08:10;;;;;;;6.40;2.35;;;;;;;17.30;100.00;97837.63;5052431;28;20017;-67
2022/06/24 01:10:37;;;;;;;9.25;2.25;;;;;;;17.27;100.00;97830.66;5046069;28;20029;-67
2022/06/24 01:13:06;;;;;;;10.15;2.67;;;;;;;17.28;100.00;97832.38;5046128;28;20025;-67
2022/06/24 01:15:32;;;;;;;9.85;2.50;;;;;;;17.25;100.00;97828.06;5045972;28;20031;-67
2022/06/24 01:17:57;;;;;;;7.70;2.08;;;;;;;17.17;100.00;97830.34;5052712;28;20025;-67
2022/06/24 01:20:23;;;;;;;7.38;2.25;;;;;;;17.09;100.00;97827.25;5045922;28;20021;-67
2022/06/24 01:22:48;;;;;;;6.65;2.38;;;;;;;17.03;100.00;97822.28;5045691;28;20029;-67
2022/06/24 01:25:13;;;;;;;5.05;1.88;;;;;;;17.01;100.00;97826.88;5045785;28;20025;-67
2022/06/24 01:27:39;;;;;;;5.75;2.20;;;;;;;17.07;100.00;97826.50;5059842;28;20028;-67
2022/06/24 01:30:05;;;;;;;9.35;2.40;;;;;;;17.04;100.00;97823.16;5065743;28;20025;-67
2022/06/24 01:32:31;;;;;;;5.00;2.20;;;;;;;17.04;100.00;97824.03;5064399;28;20023;-67
2022/06/24 01:34:56;;;;;;;4.07;2.20;;;;;;;17.07;100.00;97826.50;5056083;28;20096;-67
2022/06/24 01:37:23;;;;;;;9.95;2.90;;;;;;;16.95;100.00;97813.91;5064618;28;20028;-67
2022/06/24 01:39:49;;;;;;;7.05;2.63;;;;;;;16.93;100.00;97826.44;5064957;28;20031;-67
2022/06/24 01:42:14;;;;;;;4.35;2.28;;;;;;;16.96;100.00;97820.94;5064908;28;20048;-67
2022/06/24 01:44:40;;;;;;;5.93;2.22;;;;;;;16.92;100.00;97824.72;5054370;28;20025;-67
2022/06/24 01:47:05;;;;;;;9.05;2.15;;;;;;;16.90;100.00;97815.13;5045381;28;20029;-67
2022/06/24 01:49:31;;;;;;;4.75;2.28;;;;;;;16.95;100.00;97819.22;5046529;28;20080;-67
2022/06/24 01:51:59;;;;;;;10.63;2.63;;;;;;;16.90;100.00;97818.63;5045297;28;20025;-67
2022/06/24 01:54:25;;;;;;;11.35;2.30;;;;;;;16.91;100.00;97811.53;5059379;28;20376;-67
2022/06/24 01:56:50;;;;;;;7.68;2.80;;;;;;;16.89;100.00;97816.94;5064301;28;20071;-67
2022/06/24 01:59:16;;;;;;;5.20;2.60;;;;;;;16.95;100.00;97813.06;5064612;28;20209;-67
2022/06/24 02:01:42;;;;;;;8.65;2.45;;;;;;;16.91;100.00;97815.06;5064528;28;20092;-67
2022/06/24 02:04:09;;;;;;;7.05;2.30;;;;;;;16.97;100.00;97820.00;5055437;28;20232;-67
2022/06/24 02:06:35;;;;;;;12.10;2.78;;;;;;;16.92;100.00;97821.19;5064380;28;20027;-67
2022/06/24 02:09:00;;;;;;;5.32;2.15;;;;;;;16.85;100.00;97812.75;5064413;28;20060;-67
2022/06/24 02:14:10;;;;;;;7.55;2.67;;;;;;;16.97;100.00;97805.84;5059322;28;20027;-67
2022/06/24 02:16:36;;;;;;;9.98;3.33;;;;;;;17.01;100.00;97797.63;5063906;28;20092;-67
2022/06/24 02:19:03;;;;;;;8.52;2.50;;;;;;;17.06;100.00;97806.16;5053079;28;20025;-67
2022/06/24 02:21:28;;;;;;;19.23;3.22;;;;;;;17.11;100.00;97801.44;5044793;28;20082;-67
2022/06/24 02:23:54;;;;;;;15.68;3.15;;;;;;;17.20;100.00;97803.56;5045767;28;20041;-67
2022/06/24 02:26:20;;;;;;;14.27;3.65;;;;;;;17.12;100.00;97794.34;5044702;28;20186;-67
2022/06/24 02:28:46;;;;;;;7.13;3.05;;;;;;;17.14;100.00;97803.94;5044607;28;20022;-67
2022/06/24 02:31:12;;;;;;;8.18;2.95;;;;;;;17.12;100.00;97795.19;5044598;28;20344;-67
2022/06/24 02:33:37;;;;;;;8.80;2.72;;;;;;;17.10;100.00;97802.41;5062485;28;20023;-67
2022/06/24 02:36:04;;;;;;;16.40;3.28;;;;;;;17.03;100.00;97795.72;5051208;28;20028;-67
2022/06/24 02:38:30;;;;;;;11.90;2.78;;;;;;;17.09;100.00;97789.19;5051457;28;20025;-67
2022/06/24 02:40:55;;;;;;;12.70;3.38;;;;;;;17.08;100.00;97796.31;5061461;28;20220;-67
2022/06/24 02:43:33;;;;;;;7.93;2.45;;;;;;;17.05;100.00;97793.81;5062977;28;20020;-67
2022/06/24 02:46:08;;;;;;;10.52;3.13;;;;;;;17.05;100.00;97787.63;5044394;28;20028;-67
2022/06/24 02:48:35;;;;;;;10.43;2.83;;;;;;;17.05;100.00;97788.50;5044310;28;20217;-67
2022/06/24 02:51:03;;;;;;;6.28;2.38;;;;;;;17.06;100.00;97790.22;5056132;28;20092;-67
2022/06/24 02:53:29;;;;;;;8.20;2.88;;;;;;;17.06;100.00;97784.06;5063605;28;20126;-67
2022/06/24 02:56:08;;;;;;;6.60;2.58;;;;;;;17.04;100.00;97781.50;5063359;28;20383;-67
2022/06/24 02:58:34;;;;;;;12.88;3.67;;;;;;;17.05;100.00;97783.19;5056667;28;20028;-67
2022/06/24 03:01:01;;;;;;;9.27;3.15;;;;;;;17.03;100.00;97785.06;5044412;28;20025;-67
2022/06/24 03:03:26;;;;;;;5.55;2.50;;;;;;;16.97;100.00;97789.91;5049689;28;20092;-67
2022/06/24 03:05:52;;;;;;;10.32;2.78;;;;;;;16.90;100.00;97778.75;5055201;28;20022;-67
2022/06/24 03:08:22;;;;;;;9.95;2.95;;;;;;;16.90;100.00;97778.75;5044062;28;20049;-67
2022/06/24 03:10:49;;;;;;;10.15;3.25;;;;;;;16.90;100.00;97768.13;5044018;28;20367;-67
2022/06/24 03:13:15;;;;;;;15.52;3.33;;;;;;;16.93;100.00;97767.94;5052218;28;20021;-67
2022/06/24 03:15:42;;;;;;;10.00;3.40;;;;;;;16.96;100.00;97773.09;5063383;28;20028;-67
2022/06/24 03:18:07;;;;;;;11.13;2.88;;;;;;;16.93;100.00;97770.59;5063466;28;20024;-67
2022/06/24 03:20:33;;;;;;;8.65;2.95;;;;;;;16.96;100.00;97781.06;5062003;28;20092;-67
2022/06/24 03:22:58;;;;;;;6.80;2.67;;;;;;;16.88;100.00;97785.97;5049045;28;20029;-67
2022/06/24 03:25:24;;;;;;;10.07;2.80;;;;;;;16.96;100.00;97789.03;5063007;28;20272;-67
2022/06/24 03:27:50;;;;;;;11.68;3.40;;;;;;;16.95;100.00;97782.03;5063152;28;20263;-67
2022/06/24 03:30:16;;;;;;;7.38;3.03;;;;;;;17.04;100.00;97785.94;5063252;28;20028;-67
2022/06/24 03:32:41;;;;;;;6.43;3.13;;;;;;;17.17;100.00;97782.47;5061573;28;20225;-67
2022/06/24 03:35:08;;;;;;;8.40;3.00;;;;;;;17.28;100.00;97780.03;5063227;28;20020;-67
2022/06/24 03:37:35;;;;;;;7.35;2.67;;;;;;;17.35;100.00;97785.84;5047393;28;20217;-67
2022/06/24 03:40:02;;;;;;;11.82;3.42;;;;;;;17.39;100.00;97779.38;5043769;28;20317;-67
2022/06/24 03:42:27;;;;;;;14.38;3.72;;;;;;;17.39;100.00;97786.50;5049139;28;20021;-67
2022/06/24 03:44:53;;;;;;;9.32;3.35;;;;;;;17.45;100.00;97788.84;5062812;28;20029;-67
2022/06/24 03:47:19;;;;;;;12.45;3.13;;;;;;;17.45;100.00;97788.84;5061734;28;20025;-67
2022/06/24 03:49:44;;;;;;;8.55;3.45;;;;;;;17.51;100.00;97785.81;5063053;28;20308;-67
2022/06/24 03:52:10;;;;;;;6.25;2.80;;;;;;;17.52;100.00;97783.06;5055875;28;20100;-67
2022/06/24 03:54:36;;;;;;;10.55;2.78;;;;;;;17.59;100.00;97788.88;5043887;28;20072;-67
2022/06/24 03:57:02;;;;;;;6.15;2.83;;;;;;;17.60;100.00;97785.25;5043465;28;20029;-67
2022/06/24 03:59:28;;;;;;;13.80;3.33;;;;;;;17.59;100.00;97783.56;5048037;28;20219;-67
2022/06/24 04:01:54;;;;;;;7.47;2.72;;;;;;;17.58;100.00;97788.00;5057784;28;20059;-67
2022/06/24 04:04:19;;;;;;;11.30;2.65;;;;;;;17.60;100.00;97787.91;5043534;28;20324;-67
2022/06/24 04:06:45;;;;;;;12.90;3.30;;;;;;;17.55;100.00;97787.31;5046243;28;20070;-67
2022/06/24 04:09:10;;;;;;;11.13;3.97;;;;;;;17.59;100.00;97788.88;5062916;28;20021;-67
2022/06/24 04:11:36;;;;;;;13.75;3.92;;;;;;;17.67;100.00;97786.59;5061214;28;20055;-67
2022/06/24 04:14:01;;;;;;;8.65;3.35;;;;;;;17.81;100.00;97791.94;5062956;28;20320;-68
2022/06/24 04:16:27;;;;;;;5.80;2.80;;;;;;;17.90;100.00;97783.38;5062699;28;20027;-68
2022/06/24 04:18:53;;;;;;;12.82;2.60;;;;;;;17.97;100.00;97774.06;5062528;28;20033;-68
2022/06/24 04:21:19;;;;;;;7.22;2.88;;;;;;;17.99;100.00;97777.47;5053414;28;20431;-68
2022/06/24 04:23:45;;;;;;;9.60;3.65;;;;;;;18.02;100.00;97782.63;5059195;28;20100;-68
2022/06/24 04:26:12;;;;;;;12.38;3.60;;;;;;;18.06;100.00;97781.47;5063902;28;20269;-68
2022/06/24 04:28:38;;;;;;;9.48;3.15;;;;;;;18.04;100.00;97783.38;5064872;28;20025;-68
2022/06/24 04:31:04;;;;;;;7.50;2.97;;;;;;;18.10;100.00;97777.69;5059717;28;20083;-68
2022/06/24 04:33:29;;;;;;;9.38;4.05;;;;;;;18.11;100.00;97782.91;5065631;28;20025;-68
2022/06/24 04:35:55;;;;;;;7.28;2.63;;;;;;;18.19;100.00;97782.44;5065597;28;20020;-68
2022/06/24 04:38:21;;;;;;;9.60;2.70;;;;;;;18.24;100.00;97788.31;5047897;28;20035;-68
2022/06/24 04:40:46;;;;;;;4.38;2.30;;;;;;;18.46;100.00;97791.34;5052322;28;20384;-68
2022/06/24 04:43:15;;;;;;;11.25;3.28;;;;;;;18.62;100.00;97786.75;5046636;28;20063;-68
2022/06/24 04:45:40;;;;;;;9.25;2.38;;;;;;;19.77;99.74;97791.34;5046566;28;20033;-68
2022/06/24 04:48:06;;;;;;;19.83;3.30;;;;;;;21.63;89.17;97783.84;5046568;28;20025;-68
2022/06/24 04:50:32;;;;;;;7.78;2.60;;;;;;;22.85;82.34;97783.78;5046594;28;20221;-68
2022/06/24 04:52:57;;;;;;;14.25;3.28;;;;;;;23.85;77.90;97781.56;5046407;28;20025;-68
2022/06/24 04:55:23;;;;;;;4.05;2.03;;;;;;;23.34;80.94;97791.34;5046416;28;20029;-68
2022/06/24 04:57:49;;;;;;;8.02;2.45;;;;;;;22.60;81.03;97780.56;5046288;28;20216;-68
2022/06/24 05:00:15;;;;;;;5.78;2.30;;;;;;;21.46;85.02;97781.59;5046290;28;20025;-68
2022/06/24 05:02:41;;;;;;;6.85;1.85;;;;;;;20.66;89.51;97771.59;5046210;28;20029;-68
2022/06/24 05:05:08;;;;;;;5.97;2.90;;;;;;;20.11;91.72;97771.13;5046223;28;20344;-68
2022/06/24 05:07:33;;;;;;;5.80;2.05;;;;;;;19.63;95.03;97778.13;5046243;28;20313;-68
2022/06/24 05:09:59;;;;;;;4.15;2.10;;;;;;;19.31;95.91;97781.25;5046192;28;20028;-68
2022/06/24 05:12:24;;;;;;;13.85;2.20;;;;;;;19.13;96.34;97780.66;5046098;28;20317;-68
2022/06/24 05:14:50;;;;;;;9.07;2.58;;;;;;;18.94;97.76;97781.03;5045989;28;20026;-68
2022/06/24 05:17:15;;;;;;;8.45;2.58;;;;;;;18.80;98.49;97778.41;5045923;28;20021;-68
2022/06/24 05:19:41;;;;;;;5.35;1.90;;;;;;;18.69;99.52;97780.06;5045933;28;20092;-68
2022/06/24 05:22:06;;;;;;;6.93;2.78;;;;;;;18.59;100.00;97774.47;5045861;28;20027;-68
2022/06/24 05:24:31;;;;;;;5.03;2.53;;;;;;;18.39;100.00;97774.91;5045726;28;20037;-68
2022/06/24 05:26:57;;;;;;;4.57;2.45;;;;;;;18.39;100.00;97787.38;5045731;28;20119;-68
2022/06/24 05:29:23;;;;;;;6.60;2.75;;;;;;;18.26;100.00;97781.91;5045750;28;20317;-68
2022/06/24 05:31:48;;;;;;;5.15;2.40;;;;;;;18.33;100.00;97782.41;5045689;28;20084;-68
2022/06/24 05:34:13;;;;;;;11.57;2.78;;;;;;;18.74;99.98;97778.81;5045662;28;20053;-68
2022/06/24 05:36:39;;;;;;;6.63;3.00;;;;;;;19.64;97.43;97792.31;5045292;28;20021;-68
2022/06/24 05:39:06;;;;;;;5.22;2.13;;;;;;;20.56;91.24;97784.78;5044789;28;20089;-68
2022/06/24 05:41:32;;;;;;;6.20;2.70;;;;;;;21.97;85.63;97777.59;5045812;28;20017;-68
2022/06/24 05:43:58;;;;;;;10.93;2.92;;;;;;;23.54;79.18;97777.09;5045406;28;20060;-68
2022/06/24 05:46:23;;;;;;;12.30;2.90;;;;;;;24.51;75.32;97778.38;5045700;28;20383;-68
2022/06/24 05:48:49;;;;;;;7.45;3.17;;;;;;;25.16;71.93;97778.69;5045399;28;20021;-68
2022/06/24 05:51:16;;;;;;;4.80;2.00;;;;;;;25.88;70.14;97759.41;5045382;28;20032;-68
2022/06/24 05:56:27;;;;;;;7.25;2.88;;;;;;;27.34;65.51;97762.03;5045181;28;20024;-68
2022/06/24 05:58:52;;;;;;;11.15;2.10;;;;;;;27.73;63.22;97766.09;5045196;28;20080;-68
2022/06/24 06:01:18;;;;;;;7.47;2.22;;;;;;;27.99;60.38;97760.72;5045147;28;20029;-68
2022/06/24 06:03:44;;;;;;;6.85;1.83;;;;;;;28.45;60.73;97758.53;5045147;28;20248;-68
2022/06/24 06:06:09;;;;;;;8.05;2.08;;;;;;;27.67;60.97;97745.09;5045005;28;20025;-68
2022/06/24 06:08:36;;;;;;;7.95;2.15;;;;;;;26.32;66.00;97742.56;5045109;28;20017;-68
2022/06/24 06:11:12;;;;;;;6.03;2.05;;;;;;;25.73;67.17;97758.16;5044951;28;20044;-68
2022/06/24 06:13:42;;;;;;;3.17;1.55;;;;;;;25.17;68.26;97750.78;5045266;28;20048;-68
2022/06/24 06:16:08;;;;;;;6.78;1.65;;;;;;;25.11;68.07;97754.03;5044935;28;20027;-68
2022/06/24 06:18:33;;;;;;;8.38;2.05;;;;;;;24.85;69.47;97752.88;5044776;28;20048;-68
2022/06/24 06:21:03;;;;;;;8.65;1.88;;;;;;;24.54;70.27;97759.28;5044810;28;20096;-68
2022/06/24 06:23:29;;;;;;;6.40;1.85;;;;;;;25.74;67.63;97767.94;5044518;28;20048;-68
2022/06/24 06:25:59;;;;;;;3.58;1.70;;;;;;;26.72;64.86;97767.38;5044684;28;20033;-68
2022/06/24 06:28:24;;;;;;;5.10;2.05;;;;;;;27.93;60.56;97774.91;5044577;28;20043;-68
2022/06/24 06:30:50;;;;;;;4.72;1.98;;;;;;;28.99;59.06;97774.34;5044603;28;20031;-68
2022/06/24 06:33:15;;;;;;;3.63;1.52;;;;;;;28.34;58.85;97771.44;5044522;28;20028;-68
2022/06/24 06:35:41;;;;;;;5.53;1.50;;;;;;;26.85;62.70;97774.13;5044601;28;20036;-68
2022/06/24 06:38:07;;;;;;;4.43;2.00;;;;;;;25.50;65.31;97771.09;5044419;28;20029;-68
2022/06/24 06:40:36;;;;;;;3.50;1.80;;;;;;;24.30;68.94;97761.44;5044467;28;20052;-68
2022/06/24 06:43:05;;;;;;;6.97;2.00;;;;;;;24.47;71.00;97768.88;5044677;28;20048;-68
2022/06/24 06:45:30;;;;;;;7.55;2.08;;;;;;;25.30;68.38;97767.53;5044608;28;20058;-68
2022/06/24 06:47:56;;;;;;;4.90;1.60;;;;;;;25.91;67.58;97770.75;5044287;28;20049;-68
2022/06/24 06:50:21;;;;;;;3.13;1.60;;;;;;;25.48;65.91;97766.84;5043997;28;20025;-68
2022/06/24 06:52:46;;;;;;;4.03;1.30;;;;;;;25.28;66.29;97761.41;5044268;28;20341;-68
2022/06/24 06:55:12;;;;;;;3.75;1.48;;;;;;;25.36;65.73;97767.97;5044249;28;20025;-68
2022/06/24 06:57:37;;;;;;;2.53;1.30;;;;;;;25.53;65.67;97759.19;5044062;28;20302;-68
2022/06/24 07:00:06;;;;;;;6.85;1.73;;;;;;;24.63;67.36;97758.47;5044254;28;20317;-68
2022/06/24 07:02:32;;;;;;;9.68;1.70;;;;;;;24.42;69.57;97757.66;5044072;28;20026;-68
2022/06/24 07:04:57;;;;;;;3.28;1.52;;;;;;;24.71;69.86;97772.09;5044024;28;20055;-68
2022/06/24 07:07:23;;;;;;;6.55;1.77;;;;;;;25.31;68.30;97771.09;5044060;28;20032;-68
2022/06/24 07:09:48;;;;;;;7.65;1.70;;;;;;;25.11;69.00;97767.50;5044008;28;20028;-68
2022/06/24 07:12:14;;;;;;;4.63;1.63;;;;;;;24.79;68.80;97752.56;5044036;28;20025;-68
2022/06/24 07:14:41;;;;;;;7.68;1.67;;;;;;;24.94;69.85;97762.81;5044202;28;20021;-68
2022/06/24 07:17:07;;;;;;;4.95;2.00;;;;;;;25.87;67.56;97774.75;5043882;28;20087;-68
2022/06/24 07:19:32;;;;;;;3.92;1.70;;;;;;;25.72;65.64;97784.25;5043880;28;20325;-68
2022/06/24 07:21:58;;;;;;;8.05;2.17;;;;;;;24.79;68.78;97780.34;5043874;28;20037;-68
2022/06/24 07:24:23;;;;;;;4.43;1.85;;;;;;;24.44;70.31;97779.91;5043754;28;20356;-68
2022/06/24 07:26:48;;;;;;;5.93;1.95;;;;;;;24.04;72.91;97779.00;5043782;28;20028;-68
2022/06/24 07:29:14;;;;;;;4.75;1.70;;;;;;;23.82;73.23;97771.06;5043838;28;20069;-68
2022/06/24 07:31:39;;;;;;;6.07;2.05;;;;;;;24.90;68.70;97776.69;5043750;28;20029;-68
2022/06/24 07:34:05;;;;;;;5.20;2.03;;;;;;;26.38;63.22;97774.31;5043837;28;20032;-68
2022/06/24 07:36:30;;;;;;;6.32;1.73;;;;;;;27.93;60.57;97781.16;5043656;28;20029;-68
2022/06/24 07:38:56;;;;;;;7.35;1.75;;;;;;;27.79;59.55;97765.47;5043717;28;20040;-68
2022/06/24 07:41:21;;;;;;;10.43;1.83;;;;;;;26.43;64.12;97772.91;5043968;28;20047;-68
2022/06/24 07:43:46;;;;;;;3.20;1.70;;;;;;;25.30;65.62;97781.00;5043735;28;20088;-68
2022/06/24 07:46:12;;;;;;;4.47;1.63;;;;;;;24.44;68.55;97774.53;5043660;28;20388;-68
2022/06/24 07:48:38;;;;;;;5.65;1.83;;;;;;;24.47;69.59;97773.41;5043717;28;20029;-68
2022/06/24 07:51:14;;;;;;;2.85;1.45;;;;;;;25.63;66.70;97781.59;5043777;28;20044;-68
2022/06/24 07:53:41;;;;;;;6.45;1.90;;;;;;;26.56;62.74;97783.34;5043657;28;20053;-68
2022/06/24 07:58:50;;;;;;;2.25;1.38;;;;;;;28.56;59.03;97785.31;5043586;28;20028;-68
2022/06/24 08:01:16;;;;;;;3.92;1.35;;;;;;;28.54;58.11;97783.78;5045096;28;20021;-68
2022/06/24 08:03:42;;;;;;;4.45;1.40;;;;;;;29.54;55.61;97785.47;5047417;28;20028;-68
2022/06/24 08:06:08;;;;;;;2.70;1.30;;;;;;;30.28;52.81;97780.75;5047274;28;20273;-68
2022/06/24 08:08:33;;;;;;;4.03;1.50;;;;;;;30.52;52.72;97777.13;5047377;28;20021;-68
2022/06/24 08:10:58;;;;;;;3.25;1.70;;;;;;;28.50;57.13;97772.41;5047232;28;20021;-68
2022/06/24 08:13:24;;;;;;;3.63;1.38;;;;;;;28.02;57.02;97760.41;5047185;28;20085;-68
2022/06/24 08:15:49;;;;;;;2.08;1.20;;;;;;;26.99;60.29;97770.09;5047183;28;20328;-68
2022/06/24 08:18:15;;;;;;;2.55;1.60;;;;;;;26.07;63.28;97759.41;5047085;28;20021;-68
2022/06/24 08:20:40;;;;;;;2.15;1.23;;;;;;;26.01;65.23;97765.38;5047042;28;20309;-68
2022/06/24 08:23:05;;;;;;;2.88;1.20;;;;;;;25.45;65.30;97762.59;5046918;28;20049;-68
2022/06/24 08:25:31;;;;;;;3.08;1.35;;;;;;;26.01;63.89;97754.59;5047047;28;20067;-68
2022/06/24 08:27:56;;;;;;;3.35;1.58;;;;;;;27.18;60.06;97753.75;5046860;28;20017;-68
2022/06/24 08:30:21;;;;;;;2.67;1.30;;;;;;;26.65;63.05;97747.41;5046913;28;20037;-68
2022/06/24 08:32:47;;;;;;;7.53;1.77;;;;;;;25.75;63.02;97743.53;5046838;28;20028;-68
2022/06/24 08:35:13;;;;;;;2.58;1.38;;;;;;;25.97;63.81;97748.63;5046789;28;20025;-68
2022/06/24 08:37:38;;;;;;;1.88;1.10;;;;;;;25.89;66.88;97744.94;5046640;28;20045;-68
2022/06/24 08:40:04;;;;;;;6.13;1.52;;;;;;;25.63;64.56;97739.31;5046758;28;20028;-68
2022/06/24 08:42:30;;;;;;;3.97;1.42;;;;;;;26.03;64.53;97748.06;5046776;28;20194;-68
2022/06/24 08:44:59;;;;;;;2.95;1.30;;;;;;;26.23;63.00;97743.44;5046594;28;20025;-68
2022/06/24 08:47:25;;;;;;;2.70;1.10;;;;;;;27.97;55.58;97739.25;5046575;28;20013;-68
2022/06/24 08:49:50;;;;;;;2.33;1.23;;;;;;;29.04;55.11;97744.91;5046545;28;20021;-68
2022/06/24 08:52:17;;;;;;;4.32;1.75;;;;;;;28.98;55.53;97742.81;5046478;28;20021;-68
2022/06/24 08:54:43;;;;;;;4.47;1.52;;;;;;;28.76;53.14;97737.16;5046405;28;20033;-68
2022/06/24 08:57:11;;;;;;;3.90;1.40;;;;;;;28.19;56.10;97733.28;5046536;28;20028;-68
2022/06/24 08:59:36;;;;;;;2.78;1.10;;;;;;;29.61;52.29;97736.84;5046341;28;20097;-68
2022/06/24 09:02:02;;;;;;;1.77;1.00;;;;;;;29.75;52.94;97738.91;5046285;28;20029;-68
2022/06/24 09:04:27;;;;;;;2.80;1.25;;;;;;;28.90;53.23;97729.25;5046536;28;20028;-68
2022/06/24 09:06:54;;;;;;;3.67;0.90;;;;;;;29.78;52.02;97735.84;5046219;28;20225;-68
2022/06/24 09:09:26;;;;;;;2.80;1.30;;;;;;;30.89;51.14;97736.63;5046153;28;20021;-68
2022/06/24 09:11:57;;;;;;;6.35;1.10;;;;;;;31.44;50.03;97731.88;5045890;28;20025;-68
2022/06/24 09:14:43;;;;;;;4.07;1.20;;;;;;;30.02;48.76;97719.56;5046313;28;20032;-68
2022/06/24 09:17:10;;;;;;;3.00;1.25;;;;;;;29.17;52.35;97731.72;5046184;28;20093;-68
2022/06/24 09:19:36;;;;;;;2.83;1.10;;;;;;;29.55;52.77;97732.09;5045996;28;20025;-68
2022/06/24 09:22:02;;;;;;;1.13;0.98;;;;;;;30.40;49.82;97718.81;5045971;28;20053;-68
2022/06/24 09:24:45;;;;;;;2.88;1.30;;;;;;;30.83;50.19;97726.44;5045737;28;20048;-68
2022/06/24 09:27:10;;;;;;;3.05;1.40;;;;;;;30.06;49.23;97715.47;5045962;28;20025;-68
2022/06/24 09:29:35;;;;;;;3.22;1.38;;;;;;;30.07;51.24;97714.44;5045819;28;20313;-68
2022/06/24 09:32:05;;;;;;;1.60;1.10;;;;;;;28.36;51.58;97710.75;5045744;28;20021;-68
2022/06/24 09:34:30;;;;;;;4.05;1.23;;;;;;;26.98;54.66;97708.94;5045679;28;20029;-68
2022/06/24 09:36:55;;;;;;;1.90;1.30;;;;;;;27.87;55.62;97714.16;5045627;28;20044;-68
2022/06/24 09:39:22;;;;;;;2.40;1.35;;;;;;;28.29;54.05;97722.38;5045629;28;20028;-68
2022/06/24 09:41:50;;;;;;;2.80;1.30;;;;;;;27.51;55.58;97717.94;5045597;28;20049;-68
2022/06/24 09:44:17;;;;;;;2.75;1.50;;;;;;;27.70;55.66;97725.84;5045566;28;20041;-68
2022/06/24 09:46:43;;;;;;;3.15;1.40;;;;;;;27.96;56.15;97721.31;5045513;28;20331;-68
2022/06/24 09:49:17;;;;;;;1.42;1.20;;;;;;;29.81;52.69;97725.50;5045680;28;20026;-68
2022/06/24 09:51:44;;;;;;;1.67;1.25;;;;;;;30.94;48.09;97723.34;5045611;28;20021;-68
2022/06/24 09:54:11;;;;;;;2.35;1.20;;;;;;;31.27;47.53;97723.97;5045270;28;20088;-68
2022/06/24 09:56:38;;;;;;;4.63;1.38;;;;;;;30.97;44.87;97706.69;5045443;28;20379;-68
2022/06/24 10:01:49;;;;;;;1.52;1.23;;;;;;;32.21;45.92;97715.19;5045188;28;20028;-68
2022/06/24 10:04:20;;;;;;;0.85;0.80;;;;;;;31.74;47.32;97725.53;5045423;28;20021;-68
2022/06/24 10:06:47;;;;;;;2.33;1.10;;;;;;;31.78;45.16;97724.13;5045104;28;20029;-68
2022/06/24 10:09:14;;;;;;;1.50;1.15;;;;;;;31.33;46.30;97717.84;5045087;28;20021;-68
2022/06/24 10:11:44;;;;;;;2.97;1.08;;;;;;;31.56;43.80;97724.13;5045000;28;20032;-68
2022/06/24 10:14:12;;;;;;;1.63;1.00;;;;;;;30.72;47.44;97716.78;5045198;28;20329;-68
2022/06/24 10:16:40;;;;;;;3.15;1.20;;;;;;;30.24;48.85;97708.00;5044821;28;20246;-68
2022/06/24 10:19:07;;;;;;;1.13;0.93;;;;;;;27.96;52.31;97699.69;5045131;28;20028;-68
2022/06/24 10:21:34;;;;;;;3.10;1.40;;;;;;;27.89;55.12;97712.16;5044750;28;20367;-68
2022/06/24 10:23:59;;;;;;;1.25;1.13;;;;;;;30.21;52.43;97720.03;5044104;28;20268;-68
2022/06/24 10:26:30;;;;;;;2.05;1.20;;;;;;;30.64;50.24;97715.97;5044740;28;20021;-68
2022/06/24 10:29:04;;;;;;;4.43;1.10;;;;;;;29.94;50.32;97711.41;5044839;28;20033;-68
2022/06/24 10:31:48;;;;;;;4.53;1.30;;;;;;;28.95;49.33;97710.63;5048325;28;20161;-68
2022/06/24 10:34:22;;;;;;;5.20;1.40;;;;;;;29.71;49.82;97710.44;5048040;28;20321;-67
2022/06/24 10:36:54;;;;;;;1.73;0.98;;;;;;;30.31;48.55;97714.41;5053045;28;20224;-67
2022/06/24 10:39:22;;;;;;;5.05;1.35;;;;;;;30.80;48.60;97715.94;5045624;28;20025;-67
2022/06/24 10:41:58;;;;;;;2.45;1.50;;;;;;;30.48;47.58;97721.47;5044516;28;20309;-67
2022/06/24 10:44:26;;;;;;;3.25;1.00;;;;;;;30.14;49.54;97718.16;5059687;28;20025;-67
2022/06/24 10:47:28;;;;;;;4.28;1.63;;;;;;;30.14;49.68;97707.28;5044406;28;20136;-67
2022/06/24 10:49:54;;;;;;;1.52;1.00;;;;;;;29.23;49.96;97702.25;5044107;28;20040;-67
2022/06/24 10:52:47;;;;;;;1.30;1.02;;;;;;;29.62;49.59;97701.44;5062438;28;20029;-67
2022/06/24 10:55:20;;;;;;;1.98;1.08;;;;;;;29.39;48.78;97704.97;5054815;28;20091;-67
2022/06/24 10:57:56;;;;;;;1.30;1.00;;;;;;;29.35;50.39;97698.22;5047815;28;20056;-67
2022/06/24 11:00:42;;;;;;;1.77;1.20;;;;;;;29.44;48.64;97680.91;5063623;28;20081;-67
2022/06/24 11:03:07;;;;;;;3.55;1.35;;;;;;;29.64;49.26;97685.00;5048107;28;20297;-67
2022/06/24 11:05:40;;;;;;;3.67;1.42;;;;;;;29.06;49.13;97680.56;5063733;28;20029;-67
2022/06/24 11:08:12;;;;;;;2.72;1.17;;;;;;;29.39;48.98;97680.56;5062213;28;20044;-67
2022/06/24 11:10:39;;;;;;;4.88;1.35;;;;;;;29.56;50.25;97669.56;5044577;28;20194;-67
2022/06/24 11:13:04;;;;;;;1.92;1.33;;;;;;;29.60;50.31;97660.06;5043382;28;20084;-67
2022/06/24 11:15:32;;;;;;;3.50;1.25;;;;;;;29.48;48.47;97666.00;5055035;28;20324;-67
2022/06/24 11:18:05;;;;;;;2.10;1.30;;;;;;;29.71;48.87;97661.59;5063118;28;20033;-67
2022/06/24 11:20:30;;;;;;;3.05;1.30;;;;;;;29.19;48.99;97656.50;5060871;28;20095;-67
2022/06/24 11:22:56;;;;;;;2.10;1.20;;;;;;;29.58;48.74;97647.69;5062021;28;20036;-67
2022/06/24 11:25:24;;;;;;;4.57;1.40;;;;;;;29.71;48.68;97669.75;5062371;28;20036;-67
2022/06/24 11:27:49;;;;;;;2.83;1.30;;;;;;;29.18;48.19;97665.66;5045837;28;20025;-67
2022/06/24 11:30:14;;;;;;;2.78;0.93;;;;;;;28.85;47.74;97669.28;5042952;28;20052;-67
2022/06/24 11:33:01;;;;;;;3.15;1.10;;;;;;;28.61;50.60;97677.38;5048452;28;20339;-67
2022/06/24 11:35:28;;;;;;;2.88;1.15;;;;;;;28.46;52.16;97670.88;5062259;28;20029;-67
2022/06/24 11:37:56;;;;;;;3.75;1.45;;;;;;;28.61;51.03;97668.41;5054485;28;20033;-67
2022/06/24 11:40:31;;;;;;;1.35;0.93;;;;;;;28.67;53.30;97663.16;5047181;28;20216;-67